createdAt,value
2023-01-05T00:02:47.695Z,23.45
2023-01-05T00:05:15.923Z,19.73
2023-01-05T00:07:44.555Z,18.40
2023-01-05T00:10:33.100Z,14.88
2023-01-05T00:13:20.071Z,18.48
2023-01-05T00:16:05.703Z,12.68
2023-01-05T00:18:51.264Z,19.95
2023-01-05T00:21:36.601Z,16.40
2023-01-05T00:24:04.849Z,10.80
2023-01-05T00:26:32.950Z,12.63
2023-01-05T00:29:02.472Z,11.43
2023-01-05T00:31:30.752Z,16.85
2023-01-05T00:33:58.908Z,12.77
2023-01-05T00:36:27.030Z,14.27
2023-01-05T00:38:55.254Z,14.45
2023-01-05T00:41:23.355Z,13.75
2023-01-05T00:43:51.478Z,17.05
2023-01-05T00:46:22.311Z,12.15
2023-01-05T00:48:50.519Z,12.07
2023-01-05T00:51:18.625Z,10.60
2023-01-05T00:53:46.821Z,7.13
2023-01-05T00:56:14.951Z,8.75
2023-01-05T00:58:43.010Z,8.18
2023-01-05T01:01:12.079Z,5.97
2023-01-05T01:03:42.478Z,6.47
2023-01-05T01:06:10.797Z,6.65
2023-01-05T01:08:38.958Z,3.70
2023-01-05T01:11:07.844Z,9.10
2023-01-05T01:13:36.317Z,4.65
2023-01-05T01:16:08.316Z,5.70
2023-01-05T01:18:36.925Z,1.42
2023-01-05T01:21:07.290Z,6.13
2023-01-05T01:23:37.996Z,2.35
2023-01-05T01:26:06.561Z,5.07
2023-01-05T01:28:35.250Z,2.30
2023-01-05T01:31:04.045Z,7.93
2023-01-05T01:33:32.564Z,8.18
2023-01-05T01:36:04.555Z,5.88
2023-01-05T01:38:34.223Z,8.63
2023-01-05T01:41:02.777Z,16.45
2023-01-05T01:43:46.928Z,11.93
2023-01-05T01:46:16.275Z,10.48
2023-01-05T01:48:48.468Z,9.80
2023-01-05T01:51:21.532Z,12.65
2023-01-05T01:53:54.479Z,8.65
2023-01-05T01:56:25.301Z,8.35
2023-01-05T01:58:53.651Z,16.90
2023-01-05T02:01:21.980Z,23.80
2023-01-05T02:03:50.367Z,12.63
2023-01-05T02:06:18.759Z,14.35
2023-01-05T02:08:47.722Z,14.18
2023-01-05T02:11:32.125Z,17.83
2023-01-05T02:14:12.991Z,13.25
2023-01-05T02:16:52.798Z,15.43
2023-01-05T02:19:44.997Z,11.00
2023-01-05T02:22:36.228Z,15.30
2023-01-05T02:25:23.335Z,15.02
2023-01-05T02:28:04.060Z,11.65
2023-01-05T02:31:05.159Z,37.42
2023-01-05T02:33:44.774Z,17.55
2023-01-05T02:36:28.774Z,13.38
2023-01-05T02:39:03.550Z,16.50
2023-01-05T02:41:36.316Z,13.95
2023-01-05T02:44:05.433Z,15.73
2023-01-05T02:46:35.061Z,16.92
2023-01-05T02:49:06.287Z,16.58
2023-01-05T02:51:37.851Z,12.02
2023-01-05T02:54:10.820Z,14.80
2023-01-05T02:56:43.759Z,17.33
2023-01-05T02:59:18.022Z,22.02
2023-01-05T03:01:53.022Z,13.60
2023-01-05T03:04:26.326Z,20.27
2023-01-05T03:06:58.036Z,22.17
2023-01-05T03:09:29.867Z,15.23
2023-01-05T03:12:19.313Z,21.30
2023-01-05T03:14:51.479Z,23.88
2023-01-05T03:17:31.240Z,15.40
2023-01-05T03:20:01.343Z,18.05
2023-01-05T03:22:49.083Z,14.95
2023-01-05T03:25:37.389Z,26.15
2023-01-05T03:28:27.583Z,17.83
2023-01-05T03:31:18.472Z,23.40
2023-01-05T03:34:14.012Z,30.08
2023-01-05T03:36:49.017Z,31.25
2023-01-05T03:39:20.564Z,24.42
2023-01-05T03:44:22.137Z,16.75
2023-01-05T03:46:50.450Z,19.73
2023-01-05T03:49:20.273Z,18.92
2023-01-05T03:51:48.409Z,21.90
2023-01-05T03:54:16.588Z,21.90
2023-01-05T03:56:45.975Z,20.35
2023-01-05T03:59:14.088Z,30.20
2023-01-05T04:01:42.416Z,33.67
2023-01-05T04:04:10.635Z,21.80
2023-01-05T04:06:40.240Z,21.92
2023-01-05T04:09:08.444Z,24.00
2023-01-05T04:11:36.693Z,28.48
2023-01-05T04:14:04.908Z,32.38
2023-01-05T04:16:33.278Z,24.88
2023-01-05T04:19:01.507Z,23.42
2023-01-05T04:21:29.592Z,23.92
2023-01-05T04:23:59.111Z,36.13
2023-01-05T04:26:27.177Z,31.55
2023-01-05T04:28:55.297Z,28.50
2023-01-05T04:31:23.525Z,21.83
2023-01-05T04:33:51.787Z,24.38
2023-01-05T04:36:19.861Z,16.60
2023-01-05T04:38:47.999Z,29.00
2023-01-05T04:41:17.695Z,16.33
2023-01-05T04:43:45.798Z,15.75
2023-01-05T04:46:14.112Z,13.43
2023-01-05T04:48:42.195Z,12.70
2023-01-05T04:51:10.419Z,8.13
2023-01-05T04:53:38.653Z,11.63
2023-01-05T04:56:07.653Z,13.80
2023-01-05T04:58:37.185Z,13.25
2023-01-05T05:01:05.803Z,16.00
2023-01-05T05:03:34.122Z,11.90
2023-01-05T05:06:02.774Z,16.08
2023-01-05T05:08:30.921Z,16.67
2023-01-05T05:10:59.933Z,13.40
2023-01-05T05:13:28.092Z,11.00
2023-01-05T05:15:57.769Z,9.23
2023-01-05T05:18:25.838Z,19.85
2023-01-05T05:20:54.678Z,5.88
2023-01-05T05:23:23.065Z,8.93
2023-01-05T05:25:52.493Z,14.93
2023-01-05T05:28:23.145Z,10.13
2023-01-05T05:30:51.806Z,11.30
2023-01-05T05:33:21.269Z,14.52
2023-01-05T05:35:49.546Z,11.20
2023-01-05T05:38:17.673Z,11.93
2023-01-05T05:40:45.830Z,14.07
2023-01-05T05:43:14.042Z,16.08
2023-01-05T05:45:47.948Z,7.85
2023-01-05T05:48:18.455Z,10.30
2023-01-05T05:50:47.960Z,9.52
2023-01-05T05:53:16.641Z,12.70
2023-01-05T05:55:44.931Z,10.43
2023-01-05T05:58:13.052Z,11.13
2023-01-05T06:00:41.833Z,13.18
2023-01-05T06:03:10.047Z,9.50
2023-01-05T06:05:38.334Z,8.65
2023-01-05T06:08:08.003Z,14.75
2023-01-05T06:10:36.121Z,12.73
2023-01-05T06:13:04.591Z,9.95
2023-01-05T06:15:32.658Z,13.55
2023-01-05T06:18:01.064Z,7.13
2023-01-05T06:20:29.246Z,11.60
2023-01-05T06:22:57.416Z,6.55
2023-01-05T06:25:26.952Z,8.55
2023-01-05T06:27:55.198Z,10.27
2023-01-05T06:30:24.039Z,10.02
2023-01-05T06:32:52.171Z,10.32
2023-01-05T06:35:20.375Z,8.88
2023-01-05T06:37:48.639Z,10.38
2023-01-05T06:40:17.045Z,16.77
2023-01-05T06:42:46.612Z,11.20
2023-01-05T06:45:16.573Z,8.75
2023-01-05T06:47:45.105Z,12.45
2023-01-05T06:50:13.251Z,9.93
2023-01-05T06:52:41.467Z,11.60
2023-01-05T06:55:11.342Z,5.30
2023-01-05T06:57:39.499Z,4.63
2023-01-05T07:00:12.033Z,6.57
2023-01-05T07:02:40.259Z,6.72
2023-01-05T07:05:09.557Z,5.53
2023-01-05T07:07:37.798Z,6.90
2023-01-05T07:10:07.268Z,5.72
2023-01-05T07:12:35.499Z,5.68
2023-01-05T07:15:04.055Z,6.72
2023-01-05T07:17:34.381Z,4.55
2023-01-05T07:20:02.601Z,5.40
2023-01-05T07:22:31.819Z,4.45
2023-01-05T07:25:00.163Z,3.97
2023-01-05T07:27:28.404Z,6.40
2023-01-05T07:29:56.650Z,5.57
2023-01-05T07:32:24.797Z,7.13
2023-01-05T07:34:55.812Z,5.47
2023-01-05T07:37:25.608Z,8.52
2023-01-05T07:39:54.133Z,7.68
2023-01-05T07:42:22.393Z,8.85
2023-01-05T07:44:50.592Z,7.63
2023-01-05T07:47:18.788Z,10.13
2023-01-05T07:49:47.441Z,8.65
2023-01-05T07:52:17.925Z,8.43
2023-01-05T07:54:46.440Z,16.33
2023-01-05T07:57:14.860Z,9.70
2023-01-05T07:59:43.009Z,9.65
2023-01-05T08:02:11.897Z,9.73
2023-01-05T08:04:40.250Z,15.45
2023-01-05T08:07:11.207Z,8.93
2023-01-05T08:09:58.394Z,20.52
2023-01-05T08:12:26.467Z,10.52
2023-01-05T08:14:55.031Z,13.23
2023-01-05T08:17:23.221Z,15.85
2023-01-05T08:19:51.428Z,13.07
2023-01-05T08:22:19.661Z,12.90
2023-01-05T08:24:49.173Z,14.18
2023-01-05T08:27:17.287Z,17.92
2023-01-05T08:29:45.529Z,16.70
2023-01-05T08:32:13.600Z,14.60
2023-01-05T08:34:41.781Z,13.07
2023-01-05T08:37:10.220Z,11.73
2023-01-05T08:39:38.456Z,8.27
2023-01-05T08:42:07.930Z,12.63
2023-01-05T08:44:36.559Z,7.65
2023-01-05T08:47:04.844Z,6.15
2023-01-05T08:49:33.077Z,10.80
2023-01-05T08:52:01.245Z,15.27
2023-01-05T08:54:29.500Z,15.32
2023-01-05T08:56:59.378Z,15.27
2023-01-05T08:59:29.032Z,15.55
2023-01-05T09:01:57.274Z,8.68
2023-01-05T09:04:27.748Z,10.00
2023-01-05T09:06:56.271Z,11.27
2023-01-05T09:09:25.536Z,12.05
2023-01-05T09:11:53.742Z,12.15
2023-01-05T09:14:22.037Z,12.85
2023-01-05T09:17:08.027Z,10.88
2023-01-05T09:19:37.077Z,11.13
2023-01-05T09:22:05.671Z,13.77
2023-01-05T09:24:33.812Z,11.32
2023-01-05T09:27:03.755Z,7.70
2023-01-05T09:29:31.929Z,9.73
2023-01-05T09:32:01.490Z,15.90
2023-01-05T09:34:29.794Z,12.55
2023-01-05T09:36:57.867Z,10.38
2023-01-05T09:39:26.187Z,8.73
2023-01-05T09:41:56.633Z,13.30
2023-01-05T09:44:31.702Z,10.85
2023-01-05T09:47:05.954Z,10.93
2023-01-05T09:49:35.481Z,13.20
2023-01-05T09:52:09.479Z,14.25
2023-01-05T09:54:39.171Z,11.55
2023-01-05T09:57:14.156Z,12.93
2023-01-05T09:59:45.609Z,7.65
2023-01-05T10:02:22.005Z,5.03
2023-01-05T10:04:52.575Z,6.60
2023-01-05T10:07:35.908Z,5.83
2023-01-05T10:10:14.268Z,7.28
2023-01-05T10:13:03.472Z,12.13
2023-01-05T10:15:37.789Z,7.47
2023-01-05T10:18:14.367Z,6.05
2023-01-05T10:20:52.187Z,10.73
2023-01-05T10:23:39.455Z,5.70
2023-01-05T10:26:14.329Z,5.03
2023-01-05T10:28:48.792Z,6.25
2023-01-05T10:31:24.658Z,7.32
2023-01-05T10:34:05.023Z,10.30
2023-01-05T10:37:07.513Z,8.88
2023-01-05T10:39:57.031Z,6.15
2023-01-05T10:42:38.068Z,8.90
2023-01-05T10:45:11.423Z,5.53
2023-01-05T10:47:41.301Z,6.43
2023-01-05T10:50:29.141Z,7.40
2023-01-05T10:52:59.061Z,8.95
2023-01-05T10:55:29.971Z,8.55
2023-01-05T10:57:58.034Z,6.90
2023-01-05T11:00:41.930Z,7.75
2023-01-05T11:03:15.398Z,11.85
2023-01-05T11:05:47.472Z,6.88
2023-01-05T11:08:18.236Z,3.20
2023-01-05T11:10:56.702Z,5.03
2023-01-05T11:13:31.968Z,7.35
2023-01-05T11:16:04.417Z,4.82
2023-01-05T11:18:36.876Z,11.25
2023-01-05T11:21:15.735Z,6.03
2023-01-05T11:23:46.042Z,10.02
2023-01-05T11:26:31.932Z,6.40
2023-01-05T11:29:12.250Z,7.75
2023-01-05T11:31:45.908Z,9.90
2023-01-05T11:34:39.023Z,7.60
2023-01-05T11:37:18.538Z,8.70
2023-01-05T11:39:52.352Z,9.40
2023-01-05T11:42:25.793Z,6.20
2023-01-05T11:44:56.758Z,8.80
2023-01-05T11:47:29.089Z,7.82
2023-01-05T11:50:08.770Z,5.78
2023-01-05T11:52:42.006Z,8.50
2023-01-05T11:55:31.898Z,7.80
2023-01-05T11:58:19.188Z,9.23
2023-01-05T12:01:12.128Z,2.17
2023-01-05T12:03:59.038Z,6.40
2023-01-05T12:06:42.345Z,7.63
2023-01-05T12:09:18.738Z,8.65
2023-01-05T12:11:58.222Z,8.82
2023-01-05T12:14:44.133Z,10.68
2023-01-05T12:17:15.637Z,13.10
2023-01-05T12:22:49.358Z,7.55
2023-01-05T12:25:43.382Z,14.03
2023-01-05T12:28:41.478Z,22.67
2023-01-05T12:34:32.918Z,9.80
2023-01-05T12:37:19.339Z,9.68
2023-01-05T12:40:16.418Z,11.70
2023-01-05T12:43:02.452Z,54.35
2023-01-05T12:45:57.872Z,20.98
2023-01-05T12:48:30.657Z,46.03
2023-01-05T12:51:04.748Z,12.38
2023-01-05T12:53:46.481Z,15.18
2023-01-05T12:58:58.393Z,8.23
2023-01-05T13:01:31.113Z,6.88
2023-01-05T13:04:05.349Z,8.50
2023-01-05T13:06:39.193Z,7.97
2023-01-05T13:09:14.883Z,19.67
2023-01-05T13:11:48.975Z,15.35
2023-01-05T13:14:21.433Z,16.58
2023-01-05T13:16:58.336Z,15.98
2023-01-05T13:19:31.957Z,9.57
2023-01-05T13:22:04.279Z,14.68
2023-01-05T13:24:36.877Z,12.43
2023-01-05T13:27:05.574Z,9.68
2023-01-05T13:29:40.238Z,14.15
2023-01-05T13:32:40.844Z,20.50
2023-01-05T13:35:40.603Z,21.77
2023-01-05T13:38:43.071Z,22.98
2023-01-05T13:41:25.940Z,15.65
2023-01-05T13:44:23.088Z,8.75
2023-01-05T13:47:13.141Z,19.60
2023-01-05T13:50:12.775Z,14.10
2023-01-05T13:52:59.659Z,17.38
2023-01-05T13:55:29.463Z,10.57
2023-01-05T13:57:57.911Z,8.43
2023-01-05T14:00:28.730Z,21.00
2023-01-05T14:03:24.016Z,12.38
2023-01-05T14:05:55.019Z,5.90
2023-01-05T14:08:27.962Z,9.98
2023-01-05T14:11:14.472Z,6.90
2023-01-05T14:13:52.638Z,11.18
2023-01-05T14:16:55.853Z,8.13
2023-01-05T14:19:28.162Z,8.60
2023-01-05T14:22:42.523Z,5.80
2023-01-05T14:25:49.162Z,5.82
2023-01-05T14:28:42.286Z,8.82
2023-01-05T14:31:49.888Z,7.10
2023-01-05T14:34:21.807Z,7.75
2023-01-05T14:37:07.429Z,5.78
2023-01-05T14:39:46.254Z,5.75
2023-01-05T14:42:28.265Z,15.93
2023-01-05T14:45:01.153Z,10.35
2023-01-05T14:47:40.839Z,6.72
2023-01-05T14:50:27.960Z,8.32
2023-01-05T14:53:00.624Z,3.95
2023-01-05T14:55:40.042Z,3.92
2023-01-05T14:58:14.307Z,3.35
2023-01-05T15:00:48.071Z,2.90
2023-01-05T15:03:25.947Z,1.63
2023-01-05T15:06:01.796Z,2.58
2023-01-05T15:09:11.274Z,3.33
2023-01-05T15:12:02.727Z,3.17
2023-01-05T15:14:53.102Z,3.03
2023-01-05T15:17:54.698Z,1.75
2023-01-05T15:20:46.981Z,3.13
2023-01-05T15:23:34.734Z,6.47
2023-01-05T15:26:22.813Z,2.38
2023-01-05T15:29:29.512Z,6.57
2023-01-05T15:32:00.952Z,3.95
2023-01-05T15:34:36.752Z,4.63
2023-01-05T15:37:12.877Z,5.85
2023-01-05T15:39:47.878Z,6.40
2023-01-05T15:42:19.916Z,7.72
2023-01-05T15:44:52.155Z,6.55
2023-01-05T15:47:21.352Z,6.28
2023-01-05T15:49:51.172Z,5.63
2023-01-05T15:52:22.604Z,5.95
2023-01-05T15:55:02.921Z,5.97
2023-01-05T15:57:31.289Z,9.60
2023-01-05T16:00:00.970Z,5.38
2023-01-05T16:02:31.505Z,8.23
2023-01-05T16:05:11.135Z,3.38
2023-01-05T16:07:43.825Z,3.38
2023-01-05T16:10:24.943Z,4.95
2023-01-05T16:12:58.277Z,5.20
2023-01-05T16:15:28.334Z,1.80
2023-01-05T16:17:57.859Z,7.93
2023-01-05T16:20:27.345Z,3.15
2023-01-05T16:23:08.240Z,3.85
2023-01-05T16:25:41.884Z,4.07
2023-01-05T16:28:17.719Z,9.20
2023-01-05T16:30:48.367Z,8.05
2023-01-05T16:33:34.788Z,3.83
2023-01-05T16:36:13.605Z,6.22
2023-01-05T16:38:42.230Z,21.95
2023-01-05T16:41:13.606Z,20.92
2023-01-05T16:43:50.518Z,26.65
2023-01-05T16:46:37.911Z,42.80
2023-01-05T16:49:34.985Z,26.70
2023-01-05T16:52:04.345Z,28.45
2023-01-05T16:54:39.651Z,28.75
2023-01-05T16:57:33.502Z,40.45
2023-01-05T17:00:01.910Z,36.20
2023-01-05T17:02:44.330Z,27.83
2023-01-05T17:05:15.771Z,39.20
2023-01-05T17:07:45.833Z,24.83
2023-01-05T17:10:24.174Z,31.83
2023-01-05T17:12:58.989Z,33.33
2023-01-05T17:15:31.822Z,34.90
2023-01-05T17:18:02.036Z,36.00
2023-01-05T17:20:33.983Z,22.20
2023-01-05T17:23:03.415Z,22.27
2023-01-05T17:25:34.868Z,27.25
2023-01-05T17:28:03.011Z,22.35
2023-01-05T17:30:31.144Z,27.63
2023-01-05T17:32:59.421Z,20.77
2023-01-05T17:35:29.345Z,25.60
2023-01-05T17:37:57.525Z,14.68
2023-01-05T17:40:25.904Z,18.58
2023-01-05T17:42:54.073Z,27.27
2023-01-05T17:45:26.281Z,25.15
2023-01-05T17:47:55.393Z,24.05
2023-01-05T17:50:27.022Z,24.38
2023-01-05T17:52:57.635Z,24.52
2023-01-05T17:55:26.657Z,23.97
2023-01-05T17:57:55.417Z,25.27
2023-01-05T18:00:25.476Z,23.80
2023-01-05T18:02:55.333Z,30.55
2023-01-05T18:05:23.827Z,26.75
2023-01-05T18:07:52.355Z,23.73
2023-01-05T18:10:26.688Z,23.85
2023-01-05T18:12:56.663Z,30.63
2023-01-05T18:17:57.962Z,25.17
2023-01-05T18:20:26.103Z,20.98
2023-01-05T18:22:54.495Z,17.02
2023-01-05T18:25:24.069Z,16.30
2023-01-05T18:27:52.254Z,16.10
2023-01-05T18:30:21.120Z,15.68
2023-01-05T18:32:49.342Z,21.08
2023-01-05T18:35:17.907Z,17.48
2023-01-05T18:37:46.439Z,19.20
2023-01-05T18:40:15.534Z,26.27
2023-01-05T18:42:45.244Z,16.50
2023-01-05T18:45:19.666Z,17.27
2023-01-05T18:47:57.843Z,14.90
2023-01-05T18:50:26.273Z,16.65
2023-01-05T18:52:54.671Z,16.85
2023-01-05T18:55:22.989Z,19.10
2023-01-05T18:57:52.484Z,28.92
2023-01-05T19:00:21.154Z,16.63
2023-01-05T19:02:49.337Z,17.85
2023-01-05T19:05:17.648Z,19.27
2023-01-05T19:07:45.871Z,13.93
2023-01-05T19:10:14.120Z,14.77
2023-01-05T19:12:42.312Z,16.75
2023-01-05T19:15:13.126Z,17.25
2023-01-05T19:17:41.292Z,12.57
2023-01-05T19:20:10.459Z,13.13
2023-01-05T19:22:40.137Z,14.13
2023-01-05T19:25:09.041Z,7.05
2023-01-05T19:27:37.166Z,14.80
2023-01-05T19:30:06.004Z,11.25
2023-01-05T19:32:36.949Z,15.05
2023-01-05T19:35:06.245Z,13.75
2023-01-05T19:37:35.638Z,13.60
2023-01-05T19:40:03.848Z,14.38
2023-01-05T19:42:32.420Z,11.38
2023-01-05T19:45:00.561Z,15.95
2023-01-05T19:47:28.613Z,13.85
2023-01-05T19:49:58.230Z,17.77
2023-01-05T19:52:29.851Z,13.52
2023-01-05T19:54:58.026Z,16.98
2023-01-05T19:57:26.281Z,14.07
2023-01-05T19:59:54.556Z,14.63
2023-01-05T20:02:22.755Z,15.23
2023-01-05T20:04:50.946Z,76.63
2023-01-05T20:07:20.714Z,48.17
2023-01-05T20:09:50.548Z,40.72
2023-01-05T20:12:18.935Z,28.02
2023-01-05T20:14:47.149Z,26.92
2023-01-05T20:17:17.579Z,24.10
2023-01-05T20:19:45.672Z,15.88
2023-01-05T20:22:14.969Z,18.88
2023-01-05T20:24:44.811Z,18.42
2023-01-05T20:27:15.122Z,13.70
2023-01-05T20:29:44.059Z,20.02
2023-01-05T20:32:14.740Z,14.45
2023-01-05T20:34:45.301Z,20.50
2023-01-05T20:37:13.741Z,15.60
2023-01-05T20:39:44.431Z,14.23
2023-01-05T20:42:14.120Z,10.18
2023-01-05T20:44:45.344Z,13.90
2023-01-05T20:47:13.895Z,17.30
2023-01-05T20:49:44.709Z,22.73
2023-01-05T20:52:14.452Z,17.58
2023-01-05T20:54:44.611Z,17.38
2023-01-05T20:57:13.187Z,18.08
2023-01-05T20:59:41.686Z,19.60
2023-01-05T21:02:23.504Z,17.83
2023-01-05T21:04:53.093Z,14.57
2023-01-05T21:07:21.822Z,17.98
2023-01-05T21:09:52.971Z,21.98
2023-01-05T21:12:21.948Z,23.48
2023-01-05T21:14:50.088Z,17.70
2023-01-05T21:17:18.315Z,18.77
2023-01-05T21:19:46.564Z,15.82
2023-01-05T21:22:14.695Z,10.45
2023-01-05T21:24:43.020Z,10.82
2023-01-05T21:27:12.750Z,17.95
2023-01-05T21:29:40.900Z,15.43
2023-01-05T21:32:09.019Z,17.70
2023-01-05T21:34:37.143Z,15.90
2023-01-05T21:37:06.499Z,16.15
2023-01-05T21:39:34.729Z,20.05
2023-01-05T21:42:20.489Z,16.38
2023-01-05T21:44:49.931Z,12.95
2023-01-05T21:47:18.446Z,10.60
2023-01-05T21:49:46.769Z,16.35
2023-01-05T21:52:32.387Z,16.67
2023-01-05T21:55:26.333Z,15.27
2023-01-05T21:57:55.220Z,16.52
2023-01-05T22:00:25.646Z,14.15
2023-01-05T22:02:53.877Z,22.02
2023-01-05T22:05:22.145Z,17.55
2023-01-05T22:07:50.308Z,17.67
2023-01-05T22:10:19.076Z,14.95
2023-01-05T22:12:47.282Z,19.48
2023-01-05T22:15:15.484Z,13.50
2023-01-05T22:17:45.034Z,19.67
2023-01-05T22:20:14.995Z,16.77
2023-01-05T22:22:43.287Z,12.18
2023-01-05T22:25:11.620Z,12.88
2023-01-05T22:27:39.838Z,15.43
2023-01-05T22:30:09.610Z,19.08
2023-01-05T22:32:37.823Z,20.48
2023-01-05T22:35:08.112Z,19.35
2023-01-05T22:37:36.178Z,15.13
2023-01-05T22:40:04.350Z,26.77
2023-01-05T22:42:32.474Z,21.13
2023-01-05T22:45:00.734Z,11.18
2023-01-05T22:47:28.869Z,19.45
2023-01-05T22:49:57.760Z,17.58
2023-01-05T22:52:27.465Z,19.42
2023-01-05T22:54:55.666Z,26.10
2023-01-05T22:57:23.809Z,16.05
2023-01-05T22:59:52.075Z,14.32
2023-01-05T23:02:20.240Z,21.80
2023-01-05T23:04:48.534Z,15.82
2023-01-05T23:07:20.740Z,11.18
2023-01-05T23:09:50.495Z,13.18
2023-01-05T23:12:18.582Z,17.13
2023-01-05T23:14:46.733Z,12.75
2023-01-05T23:17:14.923Z,28.85
2023-01-05T23:19:43.027Z,19.23
2023-01-05T23:22:11.679Z,16.25
2023-01-05T23:24:39.890Z,23.67
2023-01-05T23:27:09.469Z,19.45
2023-01-05T23:29:37.850Z,18.70
2023-01-05T23:32:06.338Z,26.25
2023-01-05T23:34:34.527Z,15.90
2023-01-05T23:37:02.974Z,18.60
2023-01-05T23:39:31.190Z,13.73
2023-01-05T23:41:59.438Z,25.10
2023-01-05T23:44:28.944Z,17.17
2023-01-05T23:46:57.480Z,19.17
2023-01-05T23:49:25.663Z,19.05
2023-01-05T23:51:53.876Z,14.85
2023-01-05T23:54:22.151Z,20.98
2023-01-05T23:56:50.418Z,14.50
2023-01-05T23:59:18.611Z,12.02
